createdAt,value
2023-03-22T00:02:27.338Z,5.47
2023-03-22T00:04:56.912Z,5.25
2023-03-22T00:07:25.092Z,4.97
2023-03-22T00:09:53.072Z,4.93
2023-03-22T00:12:20.911Z,5.30
2023-03-22T00:14:49.442Z,5.00
2023-03-22T00:17:17.414Z,5.30
2023-03-22T00:19:45.269Z,5.15
2023-03-22T00:22:14.764Z,5.05
2023-03-22T00:24:42.656Z,5.32
2023-03-22T00:27:10.421Z,5.55
2023-03-22T00:29:38.347Z,5.70
2023-03-22T00:32:06.644Z,5.25
2023-03-22T00:34:34.881Z,5.55
2023-03-22T00:37:04.183Z,5.40
2023-03-22T00:39:33.439Z,5.38
2023-03-22T00:42:01.289Z,5.45
2023-03-22T00:44:29.083Z,5.22
2023-03-22T00:46:56.980Z,4.90
2023-03-22T00:49:25.505Z,5.03
2023-03-22T00:51:53.592Z,5.45
2023-03-22T00:54:21.789Z,5.55
2023-03-22T00:56:51.059Z,5.82
2023-03-22T00:59:19.098Z,5.68
2023-03-22T01:01:46.949Z,5.93
2023-03-22T01:04:18.124Z,5.88
2023-03-22T01:06:47.099Z,5.97
2023-03-22T01:09:15.174Z,6.30
2023-03-22T01:11:43.832Z,5.97
2023-03-22T01:14:16.745Z,5.78
2023-03-22T01:16:44.573Z,6.00
2023-03-22T01:19:12.697Z,6.40
2023-03-22T01:21:40.630Z,5.82
2023-03-22T01:24:09.006Z,6.32
2023-03-22T01:26:37.832Z,6.25
2023-03-22T01:29:06.365Z,6.72
2023-03-22T01:31:35.595Z,6.40
2023-03-22T01:34:03.514Z,5.95
2023-03-22T01:36:32.241Z,5.72
2023-03-22T01:39:00.501Z,6.15
2023-03-22T01:41:28.582Z,6.18
2023-03-22T01:44:09.064Z,7.38
2023-03-22T01:46:38.373Z,6.75
2023-03-22T01:49:09.903Z,6.75
2023-03-22T01:51:37.973Z,7.10
2023-03-22T01:54:19.214Z,5.95
2023-03-22T01:56:48.376Z,6.13
2023-03-22T01:59:26.095Z,6.95
2023-03-22T02:02:19.253Z,6.40
2023-03-22T02:04:57.822Z,6.50
2023-03-22T02:07:28.208Z,6.20
2023-03-22T02:09:57.730Z,6.45
2023-03-22T02:12:39.847Z,6.27
2023-03-22T02:15:24.981Z,6.40
2023-03-22T02:18:29.841Z,6.80
2023-03-22T02:21:13.930Z,6.55
2023-03-22T02:24:17.723Z,6.57
2023-03-22T02:27:21.797Z,6.43
2023-03-22T02:29:57.667Z,6.30
2023-03-22T02:32:55.429Z,5.97
2023-03-22T02:35:44.400Z,6.53
2023-03-22T02:38:36.702Z,6.40
2023-03-22T02:41:14.255Z,5.85
2023-03-22T02:43:54.509Z,6.55
2023-03-22T02:46:26.074Z,6.55
2023-03-22T02:49:00.836Z,6.75
2023-03-22T02:51:35.578Z,6.23
2023-03-22T02:54:08.519Z,6.43
2023-03-22T02:56:41.603Z,6.07
2023-03-22T02:59:12.565Z,6.38
2023-03-22T03:01:44.423Z,6.45
2023-03-22T03:04:17.558Z,6.07
2023-03-22T03:06:49.219Z,6.55
2023-03-22T03:09:20.097Z,6.63
2023-03-22T03:11:51.724Z,6.65
2023-03-22T03:14:22.177Z,7.10
2023-03-22T03:17:00.871Z,6.50
2023-03-22T03:19:36.368Z,7.15
2023-03-22T03:22:16.542Z,7.18
2023-03-22T03:24:50.222Z,6.93
2023-03-22T03:27:27.362Z,6.72
2023-03-22T03:30:01.525Z,6.63
2023-03-22T03:32:38.331Z,7.60
2023-03-22T03:35:22.368Z,6.70
2023-03-22T03:37:54.487Z,7.50
2023-03-22T03:40:27.276Z,7.63
2023-03-22T03:43:00.002Z,7.50
2023-03-22T03:45:27.940Z,7.53
2023-03-22T03:48:00.536Z,8.10
2023-03-22T03:50:29.075Z,8.63
2023-03-22T03:52:57.964Z,8.43
2023-03-22T03:55:28.111Z,7.43
2023-03-22T03:57:57.368Z,7.50
2023-03-22T04:00:25.202Z,7.70
2023-03-22T04:03:27.274Z,7.25
2023-03-22T04:06:13.191Z,8.23
2023-03-22T04:08:46.527Z,7.60
2023-03-22T04:11:17.005Z,8.10
2023-03-22T04:13:49.834Z,7.80
2023-03-22T04:16:21.666Z,7.97
2023-03-22T04:18:49.849Z,8.45
2023-03-22T04:21:17.754Z,8.02
2023-03-22T04:23:52.352Z,7.65
2023-03-22T04:26:20.687Z,10.35
2023-03-22T04:29:09.949Z,10.48
2023-03-22T04:34:27.615Z,9.15
2023-03-22T04:37:02.324Z,8.32
2023-03-22T04:40:06.654Z,7.07
2023-03-22T04:42:46.102Z,6.75
2023-03-22T04:45:21.501Z,7.22
2023-03-22T04:47:57.099Z,7.55
2023-03-22T04:50:25.063Z,7.57
2023-03-22T04:52:58.431Z,7.00
2023-03-22T04:55:27.667Z,6.78
2023-03-22T04:57:55.914Z,6.70
2023-03-22T05:00:30.077Z,7.50
2023-03-22T05:02:58.890Z,6.60
2023-03-22T05:05:52.588Z,5.97
2023-03-22T05:08:21.827Z,6.85
2023-03-22T05:10:52.190Z,6.88
2023-03-22T05:13:20.237Z,7.10
2023-03-22T05:15:50.238Z,6.97
2023-03-22T05:18:24.613Z,6.45
2023-03-22T05:20:54.932Z,6.85
2023-03-22T05:23:25.515Z,6.60
2023-03-22T05:25:58.266Z,6.43
2023-03-22T05:28:28.451Z,6.68
2023-03-22T05:31:18.061Z,5.88
2023-03-22T05:33:55.550Z,6.22
2023-03-22T05:36:26.074Z,6.03
2023-03-22T05:39:10.255Z,6.82
2023-03-22T05:41:38.273Z,5.82
2023-03-22T05:44:06.731Z,6.18
2023-03-22T05:46:38.825Z,6.38
2023-03-22T05:49:28.816Z,5.88
2023-03-22T05:51:57.248Z,6.05
2023-03-22T05:54:31.238Z,6.57
2023-03-22T05:56:59.546Z,5.88
2023-03-22T05:59:28.134Z,6.00
2023-03-22T06:01:57.475Z,5.40
2023-03-22T06:04:25.655Z,5.70
2023-03-22T06:06:59.344Z,5.50
2023-03-22T06:09:42.633Z,5.13
2023-03-22T06:12:17.033Z,5.57
2023-03-22T06:14:50.842Z,5.78
2023-03-22T06:17:38.513Z,5.28
2023-03-22T06:20:11.255Z,5.10
2023-03-22T06:22:42.005Z,5.57
2023-03-22T06:25:12.024Z,5.22
2023-03-22T06:27:46.526Z,5.78
2023-03-22T06:30:14.982Z,5.68
2023-03-22T06:33:06.125Z,5.20
2023-03-22T06:35:37.985Z,5.00
2023-03-22T06:38:07.933Z,4.95
2023-03-22T06:40:38.130Z,5.35
2023-03-22T06:43:07.445Z,5.45
2023-03-22T06:45:39.001Z,5.15
2023-03-22T06:48:09.723Z,5.07
2023-03-22T06:50:47.277Z,5.22
2023-03-22T06:53:19.903Z,5.88
2023-03-22T06:55:48.046Z,5.40
2023-03-22T06:58:19.688Z,5.75
2023-03-22T07:00:47.586Z,4.80
2023-03-22T07:03:17.845Z,5.15
2023-03-22T07:06:02.323Z,5.30
2023-03-22T07:08:32.339Z,5.22
2023-03-22T07:11:00.355Z,5.00
2023-03-22T07:13:28.753Z,4.57
2023-03-22T07:16:02.485Z,4.60
2023-03-22T07:18:44.991Z,4.43
2023-03-22T07:21:13.038Z,3.72
2023-03-22T07:23:43.163Z,3.75
2023-03-22T07:26:15.381Z,3.60
2023-03-22T07:28:46.546Z,3.30
2023-03-22T07:31:16.426Z,3.22
2023-03-22T07:34:16.288Z,3.40
2023-03-22T07:36:59.262Z,3.05
2023-03-22T07:39:28.956Z,2.90
2023-03-22T07:41:57.838Z,2.97
2023-03-22T07:44:25.699Z,2.30
2023-03-22T07:47:39.972Z,2.75
2023-03-22T07:50:30.168Z,3.00
2023-03-22T07:53:00.941Z,2.50
2023-03-22T07:55:28.955Z,2.33
2023-03-22T07:57:57.511Z,2.45
2023-03-22T08:00:26.164Z,2.60
2023-03-22T08:03:06.900Z,2.45
2023-03-22T08:05:54.774Z,2.70
2023-03-22T08:08:22.903Z,1.77
2023-03-22T08:10:51.727Z,2.30
2023-03-22T08:13:19.948Z,1.90
2023-03-22T08:15:47.974Z,1.83
2023-03-22T08:18:15.961Z,1.65
2023-03-22T08:20:46.269Z,2.45
2023-03-22T08:23:31.688Z,1.50
2023-03-22T08:26:36.265Z,1.90
2023-03-22T08:29:13.036Z,1.70
2023-03-22T08:31:41.086Z,1.70
2023-03-22T08:34:09.019Z,1.63
2023-03-22T08:36:39.002Z,1.95
2023-03-22T08:39:09.540Z,1.40
2023-03-22T08:41:48.034Z,1.30
2023-03-22T08:44:16.120Z,1.30
2023-03-22T08:46:43.993Z,1.50
2023-03-22T08:49:11.928Z,1.23
2023-03-22T08:51:43.916Z,1.20
2023-03-22T08:54:23.942Z,1.30
2023-03-22T08:56:54.793Z,1.27
2023-03-22T08:59:34.336Z,1.08
2023-03-22T09:02:22.398Z,1.33
2023-03-22T09:04:50.486Z,1.27
2023-03-22T09:07:18.883Z,0.98
2023-03-22T09:09:53.921Z,1.40
2023-03-22T09:12:22.376Z,1.17
2023-03-22T09:14:50.484Z,1.00
2023-03-22T09:17:21.318Z,1.10
2023-03-22T09:19:57.688Z,1.00
2023-03-22T09:22:32.028Z,1.50
2023-03-22T09:25:02.572Z,1.20
2023-03-22T09:27:31.119Z,1.05
2023-03-22T09:29:59.187Z,1.20
2023-03-22T09:32:27.522Z,0.95
2023-03-22T09:35:00.682Z,1.35
2023-03-22T09:37:36.154Z,1.30
2023-03-22T09:40:07.657Z,1.20
2023-03-22T09:42:39.648Z,1.15
2023-03-22T09:45:16.935Z,1.10
2023-03-22T09:50:19.822Z,0.75
2023-03-22T09:52:48.373Z,1.80
2023-03-22T09:55:23.377Z,0.75
2023-03-22T09:58:00.511Z,0.82
2023-03-22T10:00:34.481Z,0.73
2023-03-22T10:03:10.746Z,1.52
2023-03-22T10:05:42.977Z,0.88
2023-03-22T10:08:23.850Z,1.02
2023-03-22T10:10:53.510Z,1.17
2023-03-22T10:13:26.766Z,1.13
2023-03-22T10:15:56.938Z,1.20
2023-03-22T10:18:27.987Z,0.90
2023-03-22T10:21:01.661Z,0.82
2023-03-22T10:23:35.184Z,1.17
2023-03-22T10:26:07.548Z,1.10
2023-03-22T10:28:40.234Z,1.00
2023-03-22T10:31:15.984Z,1.10
2023-03-22T10:33:51.071Z,1.17
2023-03-22T10:36:23.857Z,1.20
2023-03-22T10:38:55.760Z,0.85
2023-03-22T10:41:26.768Z,1.00
2023-03-22T10:43:58.318Z,0.93
2023-03-22T10:46:29.631Z,1.50
2023-03-22T10:48:59.912Z,1.08
2023-03-22T10:51:30.605Z,0.80
2023-03-22T10:54:01.484Z,1.00
2023-03-22T10:56:30.725Z,0.90
2023-03-22T10:58:58.842Z,0.95
2023-03-22T11:01:29.887Z,0.45
2023-03-22T11:04:00.785Z,0.60
2023-03-22T11:06:32.776Z,0.80
2023-03-22T11:09:02.568Z,0.73
2023-03-22T11:11:36.495Z,1.33
2023-03-22T11:14:09.386Z,0.80
2023-03-22T11:16:45.343Z,0.77
2023-03-22T11:19:19.081Z,0.90
2023-03-22T11:21:47.076Z,1.10
2023-03-22T11:24:15.615Z,1.30
2023-03-22T11:27:03.928Z,0.63
2023-03-22T11:29:41.866Z,1.13
2023-03-22T11:32:22.970Z,1.30
2023-03-22T11:35:01.439Z,1.40
2023-03-22T11:37:29.495Z,1.13
2023-03-22T11:40:05.154Z,1.00
2023-03-22T11:42:35.249Z,1.05
2023-03-22T11:45:03.233Z,2.00
2023-03-22T11:47:38.143Z,1.40
2023-03-22T11:50:09.524Z,1.05
2023-03-22T11:52:38.666Z,0.98
2023-03-22T11:55:06.897Z,1.00
2023-03-22T11:57:38.280Z,1.02
2023-03-22T12:00:14.578Z,1.10
2023-03-22T12:02:47.715Z,1.00
2023-03-22T12:05:21.468Z,0.90
2023-03-22T12:07:55.330Z,0.90
2023-03-22T12:10:27.667Z,0.93
2023-03-22T12:13:01.176Z,1.00
2023-03-22T12:15:32.781Z,1.00
2023-03-22T12:18:07.811Z,0.98
2023-03-22T12:20:43.020Z,0.80
2023-03-22T12:23:16.467Z,1.25
2023-03-22T12:25:50.596Z,1.05
2023-03-22T12:28:23.832Z,0.90
2023-03-22T12:30:56.144Z,0.73
2023-03-22T12:33:27.808Z,0.80
2023-03-22T12:35:59.418Z,0.90
2023-03-22T12:38:36.245Z,0.98
2023-03-22T12:41:08.555Z,1.00
2023-03-22T12:43:46.722Z,1.10
2023-03-22T12:46:20.338Z,1.20
2023-03-22T12:48:52.148Z,1.15
2023-03-22T12:51:19.993Z,1.50
2023-03-22T12:53:51.921Z,1.10
2023-03-22T12:56:22.976Z,1.00
2023-03-22T12:58:55.497Z,1.08
2023-03-22T13:01:31.440Z,1.17
2023-03-22T13:03:59.877Z,1.30
2023-03-22T13:06:34.201Z,0.82
2023-03-22T13:09:16.144Z,1.08
2023-03-22T13:11:46.217Z,0.90
2023-03-22T13:14:57.720Z,1.08
2023-03-22T13:17:46.853Z,1.30
2023-03-22T13:20:38.275Z,0.95
2023-03-22T13:23:26.946Z,1.00
2023-03-22T13:26:04.999Z,1.27
2023-03-22T13:28:37.336Z,1.15
2023-03-22T13:31:07.593Z,1.10
2023-03-22T13:33:37.092Z,1.30
2023-03-22T13:36:08.954Z,1.05
2023-03-22T13:38:42.377Z,1.20
2023-03-22T13:41:22.076Z,1.02
2023-03-22T13:43:52.027Z,0.90
2023-03-22T13:46:50.573Z,0.95
2023-03-22T13:49:37.207Z,1.30
2023-03-22T13:52:09.226Z,0.82
2023-03-22T13:54:42.264Z,0.90
2023-03-22T13:57:37.558Z,1.25
2023-03-22T14:00:14.410Z,1.25
2023-03-22T14:02:45.955Z,0.88
2023-03-22T14:05:17.559Z,1.05
2023-03-22T14:07:50.708Z,1.15
2023-03-22T14:10:22.653Z,1.08
2023-03-22T14:12:53.460Z,0.88
2023-03-22T14:15:24.693Z,0.90
2023-03-22T14:17:57.624Z,1.10
2023-03-22T14:20:27.724Z,1.30
